createdAt,value
2022-08-08T00:00:52.851Z,4.57
2022-08-08T00:03:01.147Z,5.10
2022-08-08T00:06:02.903Z,5.15
2022-08-08T00:08:51.323Z,5.13
2022-08-08T00:11:46.475Z,5.18
2022-08-08T00:14:59.535Z,4.80
2022-08-08T00:18:02.645Z,4.78
2022-08-08T00:20:51.427Z,4.50
2022-08-08T00:23:40.647Z,5.50
2022-08-08T00:26:12.904Z,4.88
2022-08-08T00:28:48.803Z,5.28
2022-08-08T00:32:20.054Z,5.20
2022-08-08T00:34:46.139Z,4.95
2022-08-08T00:38:31.345Z,5.07
2022-08-08T00:41:55.248Z,5.43
2022-08-08T00:44:38.670Z,4.80
2022-08-08T00:48:01.524Z,5.25
2022-08-08T00:50:29.187Z,4.88
2022-08-08T00:53:16.821Z,5.25
2022-08-08T00:56:19.214Z,5.03
2022-08-08T00:59:44.032Z,5.55
2022-08-08T01:03:58.547Z,4.68
2022-08-08T01:05:59.319Z,4.97
2022-08-08T01:08:52.088Z,5.38
2022-08-08T01:11:37.736Z,5.50
2022-08-08T01:14:16.389Z,6.13
2022-08-08T01:17:04.881Z,14.02
2022-08-08T01:20:02.710Z,8.13
2022-08-08T01:23:04.106Z,6.65
2022-08-08T01:26:02.155Z,7.18
2022-08-08T01:28:59.919Z,8.18
2022-08-08T01:32:16.183Z,7.03
2022-08-08T01:35:11.045Z,7.38
2022-08-08T01:38:00.370Z,7.68
2022-08-08T01:40:43.670Z,6.53
2022-08-08T01:43:21.361Z,6.20
2022-08-08T01:46:02.925Z,6.97
2022-08-08T01:49:03.263Z,6.30
2022-08-08T01:52:30.702Z,6.13
2022-08-08T01:55:26.858Z,6.70
2022-08-08T01:58:19.022Z,6.40
2022-08-08T02:01:58.538Z,6.57
2022-08-08T02:04:53.960Z,6.60
2022-08-08T02:07:41.371Z,6.30
2022-08-08T02:10:45.094Z,6.80
2022-08-08T02:13:52.772Z,6.85
2022-08-08T02:16:10.086Z,6.53
2022-08-08T02:19:58.002Z,6.97
2022-08-08T02:22:32.026Z,7.40
2022-08-08T02:25:21.851Z,6.93
2022-08-08T02:28:11.022Z,6.53
2022-08-08T02:30:58.106Z,6.90
2022-08-08T02:33:41.571Z,6.53
2022-08-08T02:36:37.226Z,7.18
2022-08-08T02:39:40.766Z,6.97
2022-08-08T02:42:38.457Z,6.20
2022-08-08T02:45:51.521Z,6.78
2022-08-08T02:48:29.546Z,6.82
2022-08-08T02:51:29.869Z,6.97
2022-08-08T02:54:27.847Z,7.20
2022-08-08T02:57:25.696Z,6.57
2022-08-08T03:00:43.090Z,7.10
2022-08-08T03:03:46.317Z,6.78
2022-08-08T03:06:38.084Z,7.45
2022-08-08T03:09:29.000Z,7.47
2022-08-08T03:12:35.960Z,6.40
2022-08-08T03:15:57.619Z,7.00
2022-08-08T03:18:31.470Z,7.13
2022-08-08T03:20:58.662Z,7.97
2022-08-08T03:23:56.547Z,9.13
2022-08-08T03:26:25.262Z,8.57
2022-08-08T03:28:59.969Z,8.82
2022-08-08T03:32:05.906Z,8.15
2022-08-08T03:34:34.555Z,7.70
2022-08-08T03:37:01.618Z,7.78
2022-08-08T03:39:51.654Z,6.85
2022-08-08T03:42:30.522Z,7.13
2022-08-08T03:44:58.123Z,6.80
2022-08-08T03:47:39.408Z,7.35
2022-08-08T03:50:19.943Z,7.07
2022-08-08T03:52:47.424Z,6.80
2022-08-08T03:55:55.133Z,6.72
2022-08-08T03:58:32.864Z,6.88
2022-08-08T04:01:02.276Z,6.70
2022-08-08T04:03:58.426Z,5.82
2022-08-08T04:06:29.834Z,6.28
2022-08-08T04:09:11.083Z,6.25
2022-08-08T04:11:57.910Z,5.65
2022-08-08T04:14:34.858Z,6.07
2022-08-08T04:17:04.540Z,5.68
2022-08-08T04:19:36.579Z,6.10
2022-08-08T04:22:04.352Z,6.05
2022-08-08T04:24:31.868Z,6.00
2022-08-08T04:26:59.904Z,6.45
2022-08-08T04:29:33.134Z,6.72
2022-08-08T04:32:04.967Z,6.93
2022-08-08T04:34:49.522Z,6.20
2022-08-08T04:37:20.630Z,6.93
2022-08-08T04:40:06.393Z,6.57
2022-08-08T04:42:34.913Z,7.18
2022-08-08T04:45:05.093Z,6.90
2022-08-08T04:47:32.476Z,6.40
2022-08-08T04:50:05.054Z,6.72
2022-08-08T04:52:33.771Z,7.18
2022-08-08T04:55:02.562Z,6.18
2022-08-08T04:57:31.709Z,6.65
2022-08-08T05:00:02.295Z,6.07
2022-08-08T05:02:31.327Z,7.03
2022-08-08T05:05:00.007Z,6.88
2022-08-08T05:07:37.793Z,7.50
2022-08-08T05:10:08.892Z,7.43
2022-08-08T05:12:43.094Z,7.25
2022-08-08T05:15:31.421Z,8.02
2022-08-08T05:18:13.978Z,7.93
2022-08-08T05:20:50.015Z,6.88
2022-08-08T05:23:17.540Z,7.03
2022-08-08T05:25:44.405Z,7.70
2022-08-08T05:28:14.804Z,7.68
2022-08-08T05:30:47.258Z,7.85
2022-08-08T05:33:16.829Z,6.82
2022-08-08T05:35:46.159Z,7.80
2022-08-08T05:38:30.380Z,7.55
2022-08-08T05:41:03.514Z,7.30
2022-08-08T05:44:02.129Z,7.57
2022-08-08T05:46:24.448Z,7.65
2022-08-08T05:48:54.260Z,8.00
2022-08-08T05:51:22.010Z,6.78
2022-08-08T05:54:24.402Z,7.65
2022-08-08T05:56:42.439Z,7.72
2022-08-08T05:59:53.500Z,7.53
2022-08-08T06:02:38.629Z,7.60
2022-08-08T06:05:34.225Z,8.02
2022-08-08T06:08:02.910Z,8.35
2022-08-08T06:10:39.351Z,8.32
2022-08-08T06:13:12.432Z,7.80
2022-08-08T06:15:51.346Z,8.85
2022-08-08T06:18:25.632Z,8.77
2022-08-08T06:20:58.616Z,8.52
2022-08-08T06:23:52.723Z,8.30
2022-08-08T06:26:38.688Z,8.35
2022-08-08T06:29:48.416Z,8.98
2022-08-08T06:32:10.860Z,7.95
2022-08-08T06:34:52.484Z,7.80
2022-08-08T06:37:27.944Z,8.07
2022-08-08T06:39:57.609Z,9.77
2022-08-08T06:42:31.268Z,8.52
2022-08-08T06:44:58.678Z,7.93
2022-08-08T06:47:31.631Z,7.60
2022-08-08T06:50:04.209Z,8.50
2022-08-08T06:52:32.448Z,8.35
2022-08-08T06:55:01.521Z,7.82
2022-08-08T06:57:29.394Z,7.90
2022-08-08T07:00:12.843Z,8.25
2022-08-08T07:02:46.300Z,8.27
2022-08-08T07:05:20.648Z,10.63
2022-08-08T07:08:18.253Z,7.88
2022-08-08T07:10:50.919Z,9.38
2022-08-08T07:13:20.089Z,7.95
2022-08-08T07:16:11.843Z,8.25
2022-08-08T07:19:07.210Z,8.30
2022-08-08T07:22:05.125Z,8.23
2022-08-08T07:24:46.551Z,8.23
2022-08-08T07:27:16.791Z,8.02
2022-08-08T07:30:02.293Z,8.02
2022-08-08T07:32:32.953Z,8.20
2022-08-08T07:35:06.379Z,8.18
2022-08-08T07:40:29.567Z,8.40
2022-08-08T07:42:59.582Z,8.23
2022-08-08T07:45:34.313Z,8.68
2022-08-08T07:50:38.096Z,7.43
2022-08-08T07:53:23.878Z,7.65
2022-08-08T07:56:07.757Z,8.20
2022-08-08T07:58:43.756Z,8.18
2022-08-08T08:01:20.361Z,8.07
2022-08-08T08:04:13.698Z,8.13
2022-08-08T08:06:43.224Z,8.50
2022-08-08T08:09:19.088Z,8.35
2022-08-08T08:11:52.825Z,7.38
2022-08-08T08:15:04.223Z,8.60
2022-08-08T08:17:47.938Z,8.75
2022-08-08T08:20:18.629Z,8.25
2022-08-08T08:22:47.446Z,8.27
2022-08-08T08:25:19.138Z,8.35
2022-08-08T08:27:46.986Z,8.23
2022-08-08T08:30:14.581Z,7.60
2022-08-08T08:32:51.343Z,8.05
2022-08-08T08:35:21.626Z,7.50
2022-08-08T08:38:15.840Z,6.72
2022-08-08T08:40:43.472Z,7.57
2022-08-08T08:43:20.000Z,6.82
2022-08-08T08:45:57.833Z,7.30
2022-08-08T08:48:25.637Z,6.95
2022-08-08T08:50:54.707Z,6.75
2022-08-08T08:53:53.964Z,6.65
2022-08-08T08:56:14.137Z,6.43
2022-08-08T08:58:50.303Z,5.95
2022-08-08T09:01:28.006Z,5.88
2022-08-08T09:04:05.469Z,6.60
2022-08-08T09:06:49.936Z,7.68
2022-08-08T09:09:35.196Z,7.38
2022-08-08T09:12:09.703Z,8.00
2022-08-08T09:14:42.311Z,8.27
2022-08-08T09:17:15.820Z,8.88
2022-08-08T09:22:02.791Z,9.30
2022-08-08T09:22:34.513Z,8.05
2022-08-08T09:25:02.902Z,9.02
2022-08-08T09:27:42.083Z,9.23
2022-08-08T09:30:20.104Z,8.50
2022-08-08T09:33:13.208Z,8.93
2022-08-08T09:35:48.840Z,9.43
2022-08-08T09:38:53.173Z,9.57
2022-08-08T09:42:14.983Z,10.30
2022-08-08T09:44:53.285Z,8.88
2022-08-08T09:48:02.083Z,9.25
2022-08-08T09:50:21.273Z,9.60
2022-08-08T09:52:57.449Z,8.63
2022-08-08T09:56:03.690Z,9.45
2022-08-08T09:58:26.180Z,8.52
2022-08-08T10:01:14.257Z,8.90
2022-08-08T10:03:46.151Z,12.85
2022-08-08T10:06:29.355Z,11.27
2022-08-08T10:08:57.310Z,11.00
2022-08-08T10:12:25.992Z,7.63
2022-08-08T10:14:28.113Z,7.38
2022-08-08T10:16:59.140Z,6.95
2022-08-08T10:19:45.757Z,6.97
2022-08-08T10:22:25.950Z,6.72
2022-08-08T10:25:07.345Z,6.93
2022-08-08T10:27:44.962Z,7.43
2022-08-08T10:30:16.488Z,7.28
2022-08-08T10:33:00.780Z,6.30
2022-08-08T10:36:08.342Z,7.20
2022-08-08T10:38:19.651Z,6.68
2022-08-08T10:40:52.123Z,7.18
2022-08-08T10:43:20.352Z,7.45
2022-08-08T10:45:56.054Z,9.98
2022-08-08T10:51:10.914Z,6.72
2022-08-08T10:53:39.196Z,6.60
2022-08-08T10:56:27.920Z,7.60
2022-08-08T10:59:10.422Z,7.45
2022-08-08T11:01:49.274Z,7.10
2022-08-08T11:04:29.641Z,7.97
2022-08-08T11:07:05.868Z,7.00
2022-08-08T11:09:34.430Z,6.70
2022-08-08T11:12:12.394Z,7.95
2022-08-08T11:14:51.511Z,11.52
2022-08-08T11:17:58.090Z,12.43
2022-08-08T11:20:13.466Z,11.80
2022-08-08T11:22:41.202Z,8.23
2022-08-08T11:25:14.195Z,7.95
2022-08-08T11:27:44.485Z,7.30
2022-08-08T11:30:24.543Z,7.82
2022-08-08T11:33:04.970Z,7.47
2022-08-08T11:35:38.441Z,7.18
2022-08-08T11:38:38.561Z,7.05
2022-08-08T11:40:57.031Z,6.10
2022-08-08T11:43:39.318Z,6.28
2022-08-08T11:46:14.211Z,6.13
2022-08-08T11:48:47.036Z,6.38
2022-08-08T11:51:30.563Z,5.53
2022-08-08T11:54:27.035Z,5.82
2022-08-08T11:56:57.900Z,6.68
2022-08-08T11:59:58.655Z,6.47
2022-08-08T12:02:33.685Z,5.80
2022-08-08T12:05:08.324Z,6.00
2022-08-08T12:07:56.825Z,6.25
2022-08-08T12:10:26.144Z,5.80
2022-08-08T12:13:05.737Z,6.43
2022-08-08T12:15:46.827Z,5.68
2022-08-08T12:18:15.122Z,6.03
2022-08-08T12:20:44.949Z,6.20
2022-08-08T12:23:30.480Z,6.18
2022-08-08T12:26:17.396Z,6.13
2022-08-08T12:29:01.785Z,5.88
2022-08-08T12:31:39.233Z,6.68
2022-08-08T12:34:19.995Z,5.45
2022-08-08T12:36:49.117Z,5.93
2022-08-08T12:40:00.943Z,5.72
2022-08-08T12:42:20.997Z,5.38
2022-08-08T12:44:50.453Z,6.43
2022-08-08T12:47:58.020Z,5.20
2022-08-08T12:50:15.043Z,5.70
2022-08-08T12:52:52.473Z,5.15
2022-08-08T12:55:29.338Z,5.50
2022-08-08T12:58:15.717Z,5.70
2022-08-08T13:00:46.437Z,6.13
2022-08-08T13:03:33.396Z,6.00
2022-08-08T13:06:14.376Z,5.20
2022-08-08T13:08:53.623Z,5.03
2022-08-08T13:12:18.093Z,5.40
2022-08-08T13:14:21.521Z,5.60
2022-08-08T13:16:51.584Z,5.35
2022-08-08T13:19:24.158Z,5.43
2022-08-08T13:21:58.128Z,5.38
2022-08-08T13:24:40.890Z,5.78
2022-08-08T13:27:40.952Z,6.40
2022-08-08T13:30:08.557Z,7.28
2022-08-08T13:32:39.543Z,5.53
2022-08-08T13:35:11.646Z,5.57
2022-08-08T13:38:06.492Z,5.22
2022-08-08T13:40:35.606Z,5.10
2022-08-08T13:43:03.861Z,5.30
2022-08-08T13:45:31.506Z,4.53
2022-08-08T13:48:03.804Z,4.35
2022-08-08T13:50:49.082Z,4.97
2022-08-08T13:53:28.024Z,4.85
2022-08-08T13:56:05.781Z,4.70
2022-08-08T13:58:33.235Z,4.82
2022-08-08T14:01:18.189Z,4.80
2022-08-08T14:03:58.473Z,5.05
2022-08-08T14:06:34.071Z,4.47
2022-08-08T14:09:24.655Z,4.50
2022-08-08T14:11:49.988Z,4.50
2022-08-08T14:14:20.865Z,3.75
2022-08-08T14:16:52.563Z,3.92
2022-08-08T14:19:57.973Z,4.05
2022-08-08T14:22:23.625Z,4.20
2022-08-08T14:24:59.770Z,4.50
2022-08-08T14:27:29.711Z,4.53
2022-08-08T14:30:02.815Z,4.15
2022-08-08T14:32:30.860Z,4.20
2022-08-08T14:35:08.571Z,4.47
2022-08-08T14:37:43.116Z,3.88
2022-08-08T14:40:29.657Z,4.35
2022-08-08T14:42:59.631Z,4.10
2022-08-08T14:45:47.171Z,4.80
2022-08-08T14:48:27.633Z,4.00
2022-08-08T14:51:06.526Z,4.13
2022-08-08T14:53:54.417Z,4.40
2022-08-08T14:56:25.020Z,3.80
2022-08-08T14:58:54.359Z,5.40
2022-08-08T15:01:37.316Z,4.10
2022-08-08T15:04:09.529Z,4.20
2022-08-08T15:06:37.186Z,3.67
2022-08-08T15:09:04.511Z,4.50
2022-08-08T15:11:36.473Z,4.22
2022-08-08T15:14:13.696Z,3.83
2022-08-08T15:16:42.593Z,4.00
2022-08-08T15:19:11.334Z,4.10
2022-08-08T15:21:42.984Z,4.25
2022-08-08T15:24:13.904Z,4.45
2022-08-08T15:26:41.922Z,3.90
2022-08-08T15:29:08.881Z,3.92
2022-08-08T15:32:03.180Z,3.35
2022-08-08T15:34:29.619Z,3.47
2022-08-08T15:37:03.302Z,3.67
2022-08-08T15:39:37.623Z,4.00
2022-08-08T15:42:10.227Z,3.45
2022-08-08T15:44:38.516Z,3.83
2022-08-08T15:47:07.314Z,3.78
2022-08-08T15:49:44.385Z,3.33
2022-08-08T15:52:15.252Z,3.00
2022-08-08T15:54:47.661Z,3.25
2022-08-08T15:57:15.471Z,3.33
2022-08-08T16:00:25.266Z,2.60
2022-08-08T16:02:31.874Z,3.10
2022-08-08T16:05:02.528Z,3.28
2022-08-08T16:07:51.152Z,2.90
2022-08-08T16:13:11.640Z,2.78
2022-08-08T16:13:34.313Z,2.60
2022-08-08T16:15:59.757Z,2.60
2022-08-08T16:18:36.699Z,2.10
2022-08-08T16:21:14.779Z,2.13
2022-08-08T16:23:50.583Z,2.35
2022-08-08T16:26:34.254Z,3.08
2022-08-08T16:29:15.399Z,2.20
2022-08-08T16:31:49.194Z,2.63
2022-08-08T16:34:19.876Z,2.33
2022-08-08T16:36:50.500Z,2.70
2022-08-08T16:39:27.847Z,2.35
2022-08-08T16:42:06.235Z,2.60
2022-08-08T16:44:33.635Z,2.20
2022-08-08T16:47:41.739Z,2.35
2022-08-08T16:50:15.606Z,2.78
2022-08-08T16:55:03.767Z,2.15
2022-08-08T16:55:53.940Z,2.40
2022-08-08T16:58:25.513Z,4.13
2022-08-08T17:00:54.502Z,3.45
2022-08-08T17:03:24.870Z,7.18
2022-08-08T17:06:02.122Z,14.95
2022-08-08T17:08:28.971Z,16.50
2022-08-08T17:10:58.847Z,13.15
2022-08-08T17:13:41.467Z,26.95
2022-08-08T17:16:17.785Z,42.67
2022-08-08T17:18:49.331Z,45.03
2022-08-08T17:21:18.655Z,23.40
2022-08-08T17:24:00.041Z,14.50
2022-08-08T17:26:29.650Z,8.48
2022-08-08T17:28:58.576Z,5.18
2022-08-08T17:31:45.515Z,7.00
2022-08-08T17:34:36.255Z,6.35
2022-08-08T17:37:09.110Z,5.05
2022-08-08T17:40:03.914Z,6.65
2022-08-08T17:42:24.039Z,5.07
2022-08-08T17:44:52.604Z,4.70
2022-08-08T17:47:24.080Z,5.60
2022-08-08T17:50:01.409Z,4.80
2022-08-08T17:52:31.233Z,4.95
2022-08-08T17:55:01.249Z,4.63
2022-08-08T17:57:34.988Z,4.70
2022-08-08T18:00:03.004Z,4.72
2022-08-08T18:02:30.295Z,5.45
2022-08-08T18:04:58.809Z,4.68
2022-08-08T18:08:02.813Z,4.53
2022-08-08T18:10:15.428Z,5.05
2022-08-08T18:12:45.968Z,4.80
2022-08-08T18:15:13.547Z,4.97
2022-08-08T18:18:09.465Z,4.63
2022-08-08T18:20:37.249Z,4.88
2022-08-08T18:23:15.425Z,4.80
2022-08-08T18:25:43.528Z,5.20
2022-08-08T18:28:13.064Z,5.50
2022-08-08T18:30:40.706Z,5.40
2022-08-08T18:33:10.752Z,4.70
2022-08-08T18:36:03.041Z,5.00
2022-08-08T18:38:32.368Z,4.60
2022-08-08T18:41:01.223Z,4.82
2022-08-08T18:43:38.163Z,5.47
2022-08-08T18:46:55.637Z,5.10
2022-08-08T18:48:57.918Z,5.47
2022-08-08T18:51:52.768Z,4.80
2022-08-08T18:54:24.917Z,5.43
2022-08-08T18:56:57.717Z,5.60
2022-08-08T18:59:24.618Z,5.30
2022-08-08T19:02:28.921Z,6.38
2022-08-08T19:04:50.602Z,5.45
2022-08-08T19:07:18.311Z,6.25
2022-08-08T19:09:49.285Z,5.55
2022-08-08T19:12:32.455Z,6.03
2022-08-08T19:15:02.154Z,5.53
2022-08-08T19:17:47.870Z,5.53
2022-08-08T19:20:16.335Z,6.25
2022-08-08T19:22:44.585Z,5.85
2022-08-08T19:26:02.422Z,5.60
2022-08-08T19:28:00.001Z,6.22
2022-08-08T19:30:28.110Z,5.22
2022-08-08T19:32:58.164Z,6.22
2022-08-08T19:35:44.969Z,5.45
2022-08-08T19:38:17.272Z,5.07
2022-08-08T19:40:55.616Z,5.47
2022-08-08T19:43:28.648Z,5.85
2022-08-08T19:46:01.030Z,5.13
2022-08-08T19:48:30.949Z,5.70
2022-08-08T19:51:01.204Z,5.93
2022-08-08T19:53:54.043Z,6.32
2022-08-08T19:56:16.549Z,9.85
2022-08-08T19:59:02.869Z,6.90
2022-08-08T20:01:50.191Z,5.90
2022-08-08T20:04:16.619Z,7.10
2022-08-08T20:06:44.087Z,6.38
2022-08-08T20:09:15.920Z,6.32
2022-08-08T20:11:44.137Z,6.10
2022-08-08T20:14:31.885Z,6.43
2022-08-08T20:16:59.541Z,6.80
2022-08-08T20:19:34.496Z,6.32
2022-08-08T20:22:20.726Z,6.38
2022-08-08T20:24:53.602Z,6.22
2022-08-08T20:27:21.229Z,6.13
2022-08-08T20:30:00.594Z,7.03
2022-08-08T20:32:30.045Z,6.50
2022-08-08T20:35:02.177Z,6.03
2022-08-08T20:37:37.029Z,6.05
2022-08-08T20:40:16.604Z,6.15
2022-08-08T20:42:54.747Z,6.28
2022-08-08T20:45:54.382Z,6.43
2022-08-08T20:48:09.762Z,6.82
2022-08-08T20:50:36.902Z,6.38
2022-08-08T20:53:10.902Z,6.25
2022-08-08T20:55:50.978Z,7.18
2022-08-08T20:58:23.102Z,7.17
2022-08-08T21:00:50.472Z,7.57
2022-08-08T21:03:17.432Z,7.25
2022-08-08T21:05:49.162Z,6.82
2022-08-08T21:08:35.218Z,6.78
2022-08-08T21:11:03.231Z,6.63
2022-08-08T21:13:40.706Z,6.57
2022-08-08T21:16:18.134Z,6.35
2022-08-08T21:18:57.507Z,7.05
2022-08-08T21:21:39.331Z,6.88
2022-08-08T21:24:22.251Z,6.45
2022-08-08T21:26:54.395Z,6.65
2022-08-08T21:30:02.715Z,9.57
2022-08-08T21:32:14.204Z,7.53
2022-08-08T21:34:51.962Z,7.53
2022-08-08T21:37:53.469Z,7.18
2022-08-08T21:40:11.633Z,6.50
2022-08-08T21:42:39.874Z,6.25
2022-08-08T21:45:44.075Z,7.68
2022-08-08T21:48:07.953Z,6.40
2022-08-08T21:50:43.197Z,6.88
2022-08-08T21:54:22.740Z,6.15
2022-08-08T21:56:19.216Z,6.82
2022-08-08T21:58:45.935Z,6.57
2022-08-08T22:01:39.418Z,6.53
2022-08-08T22:04:12.277Z,6.35
2022-08-08T22:06:40.664Z,6.53
2022-08-08T22:09:09.654Z,6.78
2022-08-08T22:12:02.855Z,5.93
2022-08-08T22:14:26.707Z,6.03
2022-08-08T22:16:54.329Z,6.30
2022-08-08T22:19:24.077Z,6.35
2022-08-08T22:21:53.077Z,6.03
2022-08-08T22:24:28.401Z,6.00
2022-08-08T22:27:01.364Z,5.50
2022-08-08T22:30:01.525Z,5.35
2022-08-08T22:32:18.106Z,6.15
2022-08-08T22:34:50.446Z,5.53
2022-08-08T22:37:27.913Z,6.03
2022-08-08T22:40:16.624Z,5.25
2022-08-08T22:42:47.217Z,5.28
2022-08-08T22:45:15.644Z,5.43
2022-08-08T22:47:48.770Z,5.10
2022-08-08T22:50:26.859Z,5.30
2022-08-08T22:54:15.638Z,4.93
2022-08-08T22:55:59.111Z,5.78
2022-08-08T22:58:34.208Z,5.30
2022-08-08T23:01:26.571Z,5.95
2022-08-08T23:03:56.018Z,4.35
2022-08-08T23:06:24.977Z,4.90
2022-08-08T23:08:54.330Z,5.00
2022-08-08T23:11:23.402Z,4.53
2022-08-08T23:14:11.323Z,4.35
2022-08-08T23:16:43.880Z,4.20
2022-08-08T23:19:12.129Z,4.80
2022-08-08T23:21:39.189Z,4.35
2022-08-08T23:24:06.996Z,4.68
2022-08-08T23:26:34.357Z,4.45
2022-08-08T23:29:01.828Z,4.82
2022-08-08T23:31:28.946Z,3.95
2022-08-08T23:34:16.542Z,4.22
2022-08-08T23:36:42.521Z,3.92
2022-08-08T23:39:09.581Z,4.45
2022-08-08T23:41:45.832Z,4.88
2022-08-08T23:44:14.266Z,5.10
2022-08-08T23:49:01.100Z,4.13
2022-08-08T23:49:28.116Z,3.92
2022-08-08T23:52:04.430Z,4.25
2022-08-08T23:54:42.046Z,5.30
2022-08-08T23:57:27.478Z,4.15
